createdAt,value
2023-03-26T00:01:33.359Z,61.43
2023-03-26T00:04:01.328Z,60.54
2023-03-26T00:06:31.740Z,60.47
2023-03-26T00:08:59.006Z,60.42
2023-03-26T00:11:28.690Z,60.48
2023-03-26T00:13:57.700Z,59.99
2023-03-26T00:16:31.051Z,60.17
2023-03-26T00:18:59.896Z,59.93
2023-03-26T00:21:29.048Z,60.18
2023-03-26T00:23:59.732Z,59.36
2023-03-26T00:26:31.229Z,60.07
2023-03-26T00:29:00.132Z,59.93
2023-03-26T00:31:27.454Z,59.72
2023-03-26T00:33:55.509Z,59.57
2023-03-26T00:36:25.584Z,60.28
2023-03-26T00:38:53.745Z,59.64
2023-03-26T00:41:26.394Z,59.71
2023-03-26T00:43:56.930Z,59.68
2023-03-26T00:46:30.502Z,59.77
2023-03-26T00:48:58.971Z,59.53
2023-03-26T00:51:27.603Z,59.58
2023-03-26T00:53:55.006Z,59.44
2023-03-26T00:56:21.790Z,59.74
2023-03-26T00:58:50.267Z,60.25
2023-03-26T01:01:28.519Z,59.31
2023-03-26T01:04:08.876Z,60.11
2023-03-26T01:06:41.350Z,60.07
2023-03-26T01:09:18.691Z,59.80
2023-03-26T01:11:46.051Z,60.05
2023-03-26T01:14:18.890Z,59.51
2023-03-26T01:16:53.881Z,59.52
2023-03-26T01:19:45.289Z,59.22
2023-03-26T01:22:18.415Z,60.20
2023-03-26T01:24:48.599Z,59.92
2023-03-26T01:27:33.605Z,60.05
2023-03-26T01:30:34.448Z,59.50
2023-03-26T01:33:16.240Z,59.12
2023-03-26T01:35:56.687Z,59.00
2023-03-26T01:38:52.551Z,59.51
2023-03-26T01:41:45.764Z,59.00
2023-03-26T01:44:42.787Z,59.13
2023-03-26T01:47:11.016Z,59.27
2023-03-26T01:49:37.958Z,59.62
2023-03-26T01:52:14.707Z,59.35
2023-03-26T01:54:41.614Z,60.08
2023-03-26T01:57:43.787Z,59.94
2023-03-26T02:00:32.880Z,60.59
2023-03-26T02:03:17.719Z,60.60
2023-03-26T02:06:16.630Z,60.14
2023-03-26T02:08:58.210Z,60.32
2023-03-26T02:11:34.779Z,61.11
2023-03-26T02:14:05.965Z,60.80
2023-03-26T02:16:33.155Z,61.01
2023-03-26T02:19:00.365Z,60.98
2023-03-26T02:21:28.664Z,61.08
2023-03-26T02:24:04.207Z,60.68
2023-03-26T02:26:33.905Z,62.58
2023-03-26T02:29:04.610Z,61.24
2023-03-26T02:31:31.531Z,61.48
2023-03-26T02:33:58.394Z,61.43
2023-03-26T02:36:27.854Z,61.27
2023-03-26T02:38:57.883Z,61.61
2023-03-26T02:41:24.833Z,61.42
2023-03-26T02:43:51.619Z,62.04
2023-03-26T02:46:18.468Z,61.60
2023-03-26T02:48:45.269Z,61.84
2023-03-26T02:51:12.062Z,62.13
2023-03-26T02:53:39.319Z,61.65
2023-03-26T02:56:06.865Z,61.45
2023-03-26T02:58:33.708Z,62.20
2023-03-26T03:01:03.262Z,61.57
2023-03-26T03:03:30.376Z,61.96
2023-03-26T03:05:57.943Z,61.42
2023-03-26T03:08:28.093Z,61.34
2023-03-26T03:11:16.745Z,60.83
2023-03-26T03:13:44.865Z,61.11
2023-03-26T03:16:11.679Z,61.47
2023-03-26T03:18:38.557Z,61.36
2023-03-26T03:21:06.466Z,61.17
2023-03-26T03:23:33.503Z,61.27
2023-03-26T03:26:00.274Z,60.96
2023-03-26T03:28:27.230Z,60.95
2023-03-26T03:30:54.032Z,61.03
2023-03-26T03:33:21.335Z,60.90
2023-03-26T03:35:49.620Z,60.81
2023-03-26T03:38:17.777Z,61.00
2023-03-26T03:40:44.801Z,60.65
2023-03-26T03:43:11.695Z,60.57
2023-03-26T03:45:38.488Z,60.84
2023-03-26T03:48:05.840Z,61.13
2023-03-26T03:50:35.513Z,61.19
2023-03-26T03:53:05.483Z,61.26
2023-03-26T03:55:32.310Z,61.46
2023-03-26T03:57:59.874Z,61.98
2023-03-26T04:00:26.656Z,61.71
2023-03-26T04:02:54.336Z,61.71
2023-03-26T04:05:21.626Z,61.63
2023-03-26T04:07:48.509Z,61.33
2023-03-26T04:10:16.350Z,61.50
2023-03-26T04:12:43.299Z,61.71
2023-03-26T04:15:10.329Z,61.41
2023-03-26T04:17:42.507Z,61.68
2023-03-26T04:20:16.129Z,61.78
2023-03-26T04:22:43.966Z,62.08
2023-03-26T04:25:12.718Z,62.16
2023-03-26T04:27:42.585Z,62.37
2023-03-26T04:30:15.654Z,61.98
2023-03-26T04:32:43.117Z,62.37
2023-03-26T04:35:14.271Z,62.01
2023-03-26T04:37:44.210Z,62.60
2023-03-26T04:40:18.267Z,62.52
2023-03-26T04:42:47.762Z,62.81
2023-03-26T04:45:22.274Z,62.81
2023-03-26T04:47:50.273Z,62.91
2023-03-26T04:50:17.271Z,62.75
2023-03-26T04:52:45.275Z,62.77
2023-03-26T04:55:24.960Z,63.19
2023-03-26T04:57:56.682Z,62.87
2023-03-26T05:00:23.635Z,62.70
2023-03-26T05:02:50.555Z,62.63
2023-03-26T05:05:18.149Z,63.16
2023-03-26T05:07:45.154Z,62.90
2023-03-26T05:10:14.830Z,63.10
2023-03-26T05:12:42.313Z,63.10
2023-03-26T05:15:11.533Z,63.19
2023-03-26T05:17:41.413Z,63.35
2023-03-26T05:20:30.388Z,63.13
2023-03-26T05:22:57.356Z,63.45
2023-03-26T05:25:24.312Z,63.22
2023-03-26T05:27:51.292Z,63.57
2023-03-26T05:30:21.423Z,63.66
2023-03-26T05:32:49.386Z,63.67
2023-03-26T05:35:17.813Z,63.28
2023-03-26T05:37:46.234Z,63.11
2023-03-26T05:40:16.803Z,63.72
2023-03-26T05:42:44.080Z,63.89
2023-03-26T05:45:13.958Z,63.74
2023-03-26T05:47:41.052Z,63.84
2023-03-26T05:50:09.398Z,63.97
2023-03-26T05:52:36.245Z,63.52
2023-03-26T05:55:03.542Z,63.20
2023-03-26T05:57:31.786Z,62.73
2023-03-26T05:59:58.592Z,62.34
2023-03-26T06:02:25.512Z,62.42
2023-03-26T06:04:52.400Z,62.90
2023-03-26T06:07:19.840Z,62.71
2023-03-26T06:09:46.863Z,62.28
2023-03-26T06:12:14.069Z,63.00
2023-03-26T06:14:42.809Z,62.85
2023-03-26T06:17:10.493Z,62.74
2023-03-26T06:19:37.841Z,62.66
2023-03-26T06:22:05.710Z,61.98
2023-03-26T06:24:33.329Z,61.99
2023-03-26T06:27:00.192Z,62.04
2023-03-26T06:29:27.194Z,62.12
2023-03-26T06:31:54.258Z,62.02
2023-03-26T06:34:21.669Z,62.74
2023-03-26T06:36:48.897Z,62.27
2023-03-26T06:39:16.154Z,61.99
2023-03-26T06:41:43.024Z,60.80
2023-03-26T06:44:11.141Z,61.38
2023-03-26T06:46:38.027Z,61.48
2023-03-26T06:49:04.924Z,61.72
2023-03-26T06:51:31.807Z,61.48
2023-03-26T06:53:58.561Z,61.45
2023-03-26T06:56:25.327Z,60.81
2023-03-26T06:58:52.222Z,59.93
2023-03-26T07:01:19.043Z,58.26
2023-03-26T07:03:45.885Z,57.91
2023-03-26T07:06:12.708Z,58.29
2023-03-26T07:08:39.542Z,57.18
2023-03-26T07:11:06.761Z,57.31
2023-03-26T07:13:33.513Z,56.69
2023-03-26T07:16:00.455Z,56.04
2023-03-26T07:18:27.292Z,57.25
2023-03-26T07:20:54.802Z,55.89
2023-03-26T07:23:22.055Z,56.26
2023-03-26T07:25:49.726Z,55.81
2023-03-26T07:29:03.607Z,56.28
2023-03-26T07:31:47.197Z,55.98
2023-03-26T07:34:41.077Z,55.71
2023-03-26T07:37:36.299Z,55.32
2023-03-26T07:40:42.113Z,54.96
2023-03-26T07:43:30.414Z,54.86
2023-03-26T07:45:57.659Z,55.48
2023-03-26T07:48:27.701Z,55.73
2023-03-26T07:50:56.595Z,56.00
2023-03-26T07:53:24.238Z,56.95
2023-03-26T07:56:08.892Z,56.10
2023-03-26T07:59:07.593Z,56.86
2023-03-26T08:02:16.597Z,56.63
2023-03-26T08:04:57.390Z,56.86
2023-03-26T08:07:39.413Z,57.66
2023-03-26T08:10:51.941Z,57.92
2023-03-26T08:13:42.827Z,57.34
2023-03-26T08:16:29.904Z,57.43
2023-03-26T08:19:16.537Z,58.12
2023-03-26T08:22:04.228Z,58.57
2023-03-26T08:25:13.742Z,59.57
2023-03-26T08:27:52.537Z,59.07
2023-03-26T08:30:26.839Z,59.61
2023-03-26T08:33:13.706Z,59.89
2023-03-26T08:35:42.416Z,58.96
2023-03-26T08:38:10.918Z,56.42
2023-03-26T08:40:56.706Z,56.81
2023-03-26T08:44:04.676Z,56.95
2023-03-26T08:47:06.547Z,56.29
2023-03-26T08:50:06.374Z,54.74
2023-03-26T08:53:20.902Z,53.98
2023-03-26T08:55:57.346Z,54.22
2023-03-26T08:59:06.976Z,54.22
2023-03-26T09:01:49.230Z,54.40
2023-03-26T09:04:34.629Z,54.69
2023-03-26T09:07:49.553Z,54.61
2023-03-26T09:10:48.492Z,54.87
2023-03-26T09:14:06.057Z,54.84
2023-03-26T09:17:00.751Z,55.19
2023-03-26T09:20:18.038Z,55.87
2023-03-26T09:23:41.730Z,55.94
2023-03-26T09:26:50.938Z,57.17
2023-03-26T09:29:57.967Z,57.43
2023-03-26T09:32:57.428Z,58.37
2023-03-26T09:35:50.644Z,59.66
2023-03-26T09:38:53.357Z,59.10
2023-03-26T09:41:44.030Z,59.18
2023-03-26T09:44:23.837Z,59.38
2023-03-26T09:47:34.819Z,59.49
2023-03-26T09:50:25.752Z,60.02
2023-03-26T09:53:10.221Z,60.07
2023-03-26T09:56:11.581Z,60.49
2023-03-26T09:58:57.293Z,60.41
2023-03-26T10:01:49.336Z,61.03
2023-03-26T10:04:59.455Z,61.24
2023-03-26T10:07:47.798Z,61.49
2023-03-26T10:10:27.445Z,61.46
2023-03-26T10:13:15.238Z,61.40
2023-03-26T10:16:10.523Z,61.04
2023-03-26T10:19:20.188Z,60.30
2023-03-26T10:22:21.263Z,61.90
2023-03-26T10:25:15.153Z,61.49
2023-03-26T10:28:04.880Z,61.38
2023-03-26T10:30:43.341Z,61.05
2023-03-26T10:33:31.661Z,61.83
2023-03-26T10:36:29.393Z,60.84
2023-03-26T10:39:03.747Z,60.99
2023-03-26T10:42:04.061Z,61.91
2023-03-26T10:44:57.605Z,62.67
2023-03-26T10:48:12.563Z,60.91
2023-03-26T10:51:00.389Z,59.71
2023-03-26T10:53:51.865Z,59.26
2023-03-26T10:56:40.365Z,59.42
2023-03-26T10:59:12.577Z,60.85
2023-03-26T11:01:54.775Z,61.09
2023-03-26T11:04:55.348Z,60.26
2023-03-26T11:07:27.113Z,60.83
2023-03-26T11:10:24.954Z,60.77
2023-03-26T11:13:25.824Z,61.49
2023-03-26T11:16:06.387Z,60.87
2023-03-26T11:19:27.029Z,61.52
2023-03-26T11:22:07.070Z,60.83
2023-03-26T11:24:33.835Z,61.62
2023-03-26T11:27:24.360Z,61.32
2023-03-26T11:30:21.275Z,61.79
2023-03-26T11:32:57.205Z,62.06
2023-03-26T11:35:46.045Z,62.15
2023-03-26T11:38:23.234Z,62.21
2023-03-26T11:40:55.213Z,61.27
2023-03-26T11:43:35.894Z,61.01
2023-03-26T11:46:12.478Z,60.85
2023-03-26T11:48:49.918Z,61.30
2023-03-26T11:51:31.350Z,60.62
2023-03-26T11:53:58.664Z,60.36
2023-03-26T11:57:05.688Z,62.15
2023-03-26T11:59:55.586Z,60.25
2023-03-26T12:02:38.538Z,61.09
2023-03-26T12:05:19.241Z,60.33
2023-03-26T12:08:02.303Z,60.68
2023-03-26T12:10:37.724Z,59.73
2023-03-26T12:13:28.445Z,59.07
2023-03-26T12:16:05.890Z,59.79
2023-03-26T12:18:32.753Z,58.69
2023-03-26T12:21:11.585Z,57.19
2023-03-26T12:24:05.619Z,54.23
2023-03-26T12:26:45.614Z,53.20
2023-03-26T12:29:16.590Z,53.42
2023-03-26T12:32:07.762Z,53.46
2023-03-26T12:34:37.712Z,54.02
2023-03-26T12:37:07.610Z,53.97
2023-03-26T12:40:11.854Z,52.81
2023-03-26T12:44:51.503Z,51.66
2023-03-26T12:45:42.222Z,52.66
2023-03-26T12:48:15.631Z,53.04
2023-03-26T12:51:21.497Z,53.00
2023-03-26T12:54:09.754Z,56.23
2023-03-26T12:56:50.014Z,55.36
2023-03-26T13:00:21.263Z,56.48
2023-03-26T13:03:15.446Z,56.03
2023-03-26T13:06:04.990Z,56.39
2023-03-26T13:09:12.299Z,56.24
2023-03-26T13:12:09.158Z,59.89
2023-03-26T13:15:20.132Z,62.48
2023-03-26T13:18:10.270Z,61.85
2023-03-26T13:20:50.160Z,61.46
2023-03-26T13:23:34.770Z,61.83
2023-03-26T13:26:16.673Z,61.46
2023-03-26T13:29:15.871Z,60.46
2023-03-26T13:31:54.761Z,60.19
2023-03-26T13:34:28.010Z,59.47
2023-03-26T13:37:17.208Z,60.62
2023-03-26T13:40:17.653Z,60.54
2023-03-26T13:43:36.131Z,59.44
2023-03-26T13:46:21.600Z,59.29
2023-03-26T13:49:02.198Z,58.57
2023-03-26T13:52:02.820Z,59.80
2023-03-26T13:54:44.584Z,59.88
2023-03-26T13:57:34.808Z,58.49
2023-03-26T14:00:23.395Z,58.08
2023-03-26T14:03:01.849Z,57.28
2023-03-26T14:05:42.568Z,58.04
2023-03-26T14:08:32.389Z,58.89
2023-03-26T14:11:10.852Z,61.70
2023-03-26T14:13:54.641Z,62.75
2023-03-26T14:16:35.592Z,64.66
2023-03-26T14:19:21.132Z,62.88
2023-03-26T14:22:07.613Z,63.54
2023-03-26T14:25:24.246Z,63.56
2023-03-26T14:28:02.083Z,62.57
2023-03-26T14:30:41.914Z,61.62
2023-03-26T14:33:45.668Z,60.66
2023-03-26T14:36:34.886Z,59.81
2023-03-26T14:39:37.246Z,59.15
2023-03-26T14:42:29.845Z,59.28
2023-03-26T14:45:52.574Z,59.34
2023-03-26T14:48:33.662Z,59.24
2023-03-26T14:51:27.315Z,58.59
2023-03-26T14:54:07.879Z,57.85
2023-03-26T14:56:48.160Z,57.00
2023-03-26T14:59:55.285Z,57.55
2023-03-26T15:02:55.451Z,57.69
2023-03-26T15:05:44.016Z,57.31
2023-03-26T15:08:33.732Z,57.69
2023-03-26T15:11:20.922Z,58.33
2023-03-26T15:14:30.949Z,58.10
2023-03-26T15:17:19.189Z,57.11
2023-03-26T15:20:06.043Z,56.57
2023-03-26T15:23:29.352Z,55.71
2023-03-26T15:26:30.530Z,57.70
2023-03-26T15:29:28.156Z,58.67
2023-03-26T15:32:59.380Z,57.66
2023-03-26T15:35:45.306Z,58.18
2023-03-26T15:38:55.039Z,57.70
2023-03-26T15:41:56.268Z,57.28
2023-03-26T15:44:31.667Z,56.52
2023-03-26T15:47:28.084Z,57.50
2023-03-26T15:50:23.335Z,57.06
2023-03-26T15:53:23.342Z,57.46
2023-03-26T15:56:36.320Z,58.20
2023-03-26T15:59:31.525Z,59.03
2023-03-26T16:02:22.652Z,59.15
2023-03-26T16:05:04.937Z,59.87
2023-03-26T16:07:58.690Z,59.70
2023-03-26T16:10:51.941Z,59.18
2023-03-26T16:13:40.620Z,58.59
2023-03-26T16:16:16.359Z,58.03
2023-03-26T16:18:45.249Z,57.35
2023-03-26T16:21:32.356Z,59.83
2023-03-26T16:24:02.531Z,61.24
2023-03-26T16:26:44.709Z,62.15
2023-03-26T16:29:14.597Z,61.78
2023-03-26T16:32:05.615Z,61.34
2023-03-26T16:34:56.518Z,62.00
2023-03-26T16:37:46.008Z,61.39
2023-03-26T16:40:22.251Z,62.38
2023-03-26T16:43:16.769Z,61.42
2023-03-26T16:46:17.328Z,61.31
2023-03-26T16:49:16.545Z,60.85
2023-03-26T16:51:59.770Z,60.01
2023-03-26T16:54:42.233Z,59.85
2023-03-26T16:57:27.601Z,60.31
2023-03-26T17:00:48.078Z,60.34
2023-03-26T17:03:45.992Z,59.12
2023-03-26T17:07:08.684Z,58.88
2023-03-26T17:10:02.814Z,58.52
2023-03-26T17:12:57.902Z,58.52
2023-03-26T17:15:55.906Z,57.76
2023-03-26T17:18:41.491Z,58.16
2023-03-26T17:21:28.873Z,58.30
2023-03-26T17:24:23.648Z,57.54
2023-03-26T17:27:18.684Z,57.63
2023-03-26T17:30:07.785Z,57.43
2023-03-26T17:32:59.808Z,57.58
2023-03-26T17:35:41.010Z,57.93
2023-03-26T17:38:30.752Z,58.03
2023-03-26T17:40:59.632Z,57.84
2023-03-26T17:43:37.250Z,58.16
2023-03-26T17:46:33.944Z,58.28
2023-03-26T17:49:12.622Z,58.81
2023-03-26T17:52:21.298Z,58.39
2023-03-26T17:54:52.460Z,58.12
2023-03-26T17:57:33.831Z,57.22
2023-03-26T18:00:01.700Z,58.04
2023-03-26T18:02:42.397Z,58.45
2023-03-26T18:05:13.723Z,58.61
2023-03-26T18:08:32.214Z,59.13
2023-03-26T18:11:37.350Z,58.84
2023-03-26T18:14:34.416Z,58.33
2023-03-26T18:17:02.047Z,59.46
2023-03-26T18:19:31.804Z,59.22
2023-03-26T18:22:04.013Z,59.97
2023-03-26T18:24:39.819Z,60.41
2023-03-26T18:27:18.805Z,60.10
2023-03-26T18:30:09.350Z,60.18
2023-03-26T18:32:52.865Z,60.35
2023-03-26T18:35:21.904Z,62.22
2023-03-26T18:37:53.400Z,63.39
2023-03-26T18:40:23.418Z,65.71
2023-03-26T18:42:56.070Z,66.24
2023-03-26T18:45:36.368Z,66.00
2023-03-26T18:48:20.590Z,66.20
2023-03-26T18:50:54.275Z,65.61
2023-03-26T18:53:39.896Z,64.23
2023-03-26T18:56:31.118Z,64.15
2023-03-26T18:59:00.191Z,63.45
2023-03-26T19:01:33.077Z,63.41
2023-03-26T19:04:05.348Z,61.92
2023-03-26T19:06:38.257Z,62.21
2023-03-26T19:09:16.291Z,62.34
2023-03-26T19:11:59.286Z,61.95
2023-03-26T19:14:28.426Z,61.95
2023-03-26T19:17:05.534Z,61.44
2023-03-26T19:19:36.797Z,60.95
2023-03-26T19:22:06.315Z,61.26
2023-03-26T19:24:33.769Z,61.11
2023-03-26T19:27:01.062Z,62.45
2023-03-26T19:29:32.645Z,61.79
2023-03-26T19:32:32.830Z,63.18
2023-03-26T19:35:02.046Z,63.31
2023-03-26T19:37:30.953Z,62.41
2023-03-26T19:40:14.077Z,63.14
2023-03-26T19:42:44.808Z,63.22
2023-03-26T19:45:23.174Z,63.13
2023-03-26T19:48:03.540Z,62.90
2023-03-26T19:50:37.105Z,62.46
2023-03-26T19:53:25.310Z,63.37
2023-03-26T19:56:18.658Z,62.58
2023-03-26T19:58:45.780Z,62.94
2023-03-26T20:01:26.544Z,62.86
2023-03-26T20:03:58.020Z,62.33
2023-03-26T20:06:41.799Z,62.25
2023-03-26T20:09:12.325Z,64.05
2023-03-26T20:11:39.817Z,64.08
2023-03-26T20:14:33.781Z,63.78
2023-03-26T20:17:00.630Z,63.44
2023-03-26T20:19:27.491Z,64.27
2023-03-26T20:21:54.553Z,64.83
2023-03-26T20:24:21.667Z,64.14
2023-03-26T20:26:48.658Z,63.90
2023-03-26T20:29:16.421Z,64.77
2023-03-26T20:31:43.837Z,64.07
2023-03-26T20:34:21.921Z,64.17
2023-03-26T20:36:54.865Z,64.42
2023-03-26T20:39:25.337Z,63.82
2023-03-26T20:41:54.241Z,65.40
2023-03-26T20:44:22.411Z,63.91
2023-03-26T20:46:50.135Z,63.90
2023-03-26T20:49:18.128Z,64.23
2023-03-26T20:51:45.655Z,64.06
2023-03-26T20:54:25.098Z,64.35
2023-03-26T20:56:54.128Z,64.70
2023-03-26T20:59:26.076Z,64.84
2023-03-26T21:01:54.599Z,64.00
2023-03-26T21:04:21.975Z,63.46
2023-03-26T21:06:49.202Z,63.85
2023-03-26T21:09:23.302Z,63.54
2023-03-26T21:12:05.511Z,63.16
2023-03-26T21:14:38.976Z,62.35
2023-03-26T21:17:08.099Z,62.49
2023-03-26T21:19:35.163Z,62.67
2023-03-26T21:22:37.528Z,63.54
2023-03-26T21:25:19.588Z,63.67
2023-03-26T21:28:08.322Z,64.60
2023-03-26T21:30:35.559Z,64.49
2023-03-26T21:33:05.085Z,65.21
2023-03-26T21:35:34.405Z,64.25
2023-03-26T21:38:04.396Z,64.56
2023-03-26T21:40:31.814Z,63.60
2023-03-26T21:42:59.082Z,63.74
2023-03-26T21:45:26.668Z,63.32
2023-03-26T21:47:54.057Z,63.23
2023-03-26T21:50:23.407Z,63.03
2023-03-26T21:52:51.914Z,63.35
2023-03-26T21:55:21.943Z,63.10
2023-03-26T21:58:28.568Z,63.24
2023-03-26T22:01:12.816Z,62.68
2023-03-26T22:03:51.646Z,63.64
2023-03-26T22:06:31.379Z,63.91
2023-03-26T22:08:59.552Z,64.87
2023-03-26T22:11:26.559Z,64.19
2023-03-26T22:13:55.421Z,63.43
2023-03-26T22:16:25.444Z,63.65
2023-03-26T22:18:53.741Z,63.09
2023-03-26T22:21:23.278Z,62.94
2023-03-26T22:23:54.637Z,62.86
2023-03-26T22:26:25.986Z,63.53
2023-03-26T22:28:53.084Z,62.84
2023-03-26T22:31:19.972Z,62.37
2023-03-26T22:33:47.197Z,63.75
2023-03-26T22:36:22.626Z,62.96
2023-03-26T22:38:53.586Z,63.46
2023-03-26T22:41:22.154Z,62.81
2023-03-26T22:43:51.904Z,62.72
2023-03-26T22:46:21.000Z,62.76
2023-03-26T22:48:51.385Z,62.79
2023-03-26T22:51:18.991Z,63.06
2023-03-26T22:53:45.846Z,63.03
2023-03-26T22:56:14.263Z,62.72
2023-03-26T22:58:42.157Z,62.80
2023-03-26T23:01:16.730Z,62.59
2023-03-26T23:03:44.681Z,62.76
2023-03-26T23:06:12.666Z,63.10
2023-03-26T23:08:40.499Z,62.61
2023-03-26T23:11:20.275Z,62.22
2023-03-26T23:13:47.837Z,62.17
2023-03-26T23:16:17.112Z,62.32
2023-03-26T23:18:44.873Z,63.42
2023-03-26T23:21:18.401Z,63.41
2023-03-26T23:23:46.004Z,63.20
2023-03-26T23:26:14.386Z,63.44
2023-03-26T23:28:41.597Z,63.32
2023-03-26T23:31:10.751Z,62.83
2023-03-26T23:33:39.235Z,62.48
2023-03-26T23:36:10.979Z,62.99
2023-03-26T23:38:43.837Z,62.66
2023-03-26T23:41:14.860Z,63.63
2023-03-26T23:43:54.777Z,63.04
2023-03-26T23:46:30.638Z,63.15
2023-03-26T23:48:59.850Z,63.94
2023-03-26T23:51:26.986Z,63.30
2023-03-26T23:53:53.908Z,62.39
2023-03-26T23:56:20.973Z,63.13
2023-03-26T23:58:48.945Z,62.93
